Time;durP1;ratioP1;P1;durP2;ratioP2;P2;SDS_P1;SDS_P2;PMS_P1;PMS_P2;Temp;Humidity;BMP_temperature;BMP_pressure;BME280_temperature;BME280_humidity;BME280_pressure;Samples;Min_cycle;Max_cycle;Signal;HPM_P1;HPM_P2
2020/12/15 00:02:12;;;;;;;3.73;3.30;;;;;;;;;;5071181;28;20429;-74
2020/12/15 00:04:39;;;;;;;4.90;2.80;;;;;;;;;;5071750;28;20575;-76
2020/12/15 00:07:06;;;;;;;4.63;3.20;;;;;;;;;;5072779;28;20523;-76
2020/12/15 00:09:34;;;;;;;4.90;3.30;;;;;;;;;;5072742;28;20795;-75
2020/12/15 00:12:00;;;;;;;3.90;3.50;;;;;;;;;;5072584;28;20875;-76
2020/12/15 00:14:27;;;;;;;3.90;3.07;;;;;;;;;;5068586;28;20490;-75
2020/12/15 00:16:57;;;;;;;6.63;3.37;;;;;;;;;;5067896;28;20483;-75
2020/12/15 00:19:24;;;;;;;5.43;3.20;;;;;;;;;;5052327;28;20444;-75
2020/12/15 00:21:52;;;;;;;4.53;3.43;;;;;;;;;;5070103;28;20442;-75
2020/12/15 00:24:19;;;;;;;4.07;3.23;;;;;;;;;;5070521;28;20451;-76
2020/12/15 00:26:46;;;;;;;4.70;3.60;;;;;;;;;;5071130;28;20515;-76
2020/12/15 00:29:13;;;;;;;5.50;3.40;;;;;;;;;;5072341;28;20786;-75
2020/12/15 00:31:40;;;;;;;4.03;2.80;;;;;;;;;;5068854;28;20431;-75
2020/12/15 00:34:07;;;;;;;4.27;3.40;;;;;;;;;;5065834;28;20443;-75
2020/12/15 00:36:34;;;;;;;4.67;3.47;;;;;;;;;;5069291;28;20924;-76
2020/12/15 00:39:01;;;;;;;4.05;3.58;;;;;;;;;;5069852;28;20470;-76
2020/12/15 00:41:28;;;;;;;5.88;3.63;;;;;;;;;;5052282;28;20550;-75
2020/12/15 00:43:56;;;;;;;5.27;3.73;;;;;;;;;;5049170;28;20217;-76
2020/12/15 00:46:22;;;;;;;3.88;3.25;;;;;;;;;;5052533;28;20457;-75
2020/12/15 00:48:49;;;;;;;4.10;3.47;;;;;;;;;;5051789;28;20207;-75
2020/12/15 00:51:17;;;;;;;5.33;3.80;;;;;;;;;;5051991;28;20205;-76
2020/12/15 00:53:44;;;;;;;5.82;4.25;;;;;;;;;;5059736;28;20990;-77
2020/12/15 00:56:11;;;;;;;5.18;3.97;;;;;;;;;;5066286;28;20197;-76
2020/12/15 00:58:38;;;;;;;4.00;3.40;;;;;;;;;;5069513;28;20281;-78
2020/12/15 01:01:06;;;;;;;5.70;3.67;;;;;;;;;;5068804;28;20193;-77
2020/12/15 01:03:33;;;;;;;5.57;3.85;;;;;;;;;;5069160;28;20220;-76
2020/12/15 01:06:00;;;;;;;6.40;3.88;;;;;;;;;;5070067;28;20202;-76
2020/12/15 01:08:27;;;;;;;5.95;3.75;;;;;;;;;;5053962;28;20294;-76
2020/12/15 01:10:54;;;;;;;4.10;3.65;;;;;;;;;;5071694;28;20293;-77
2020/12/15 01:13:21;;;;;;;5.63;4.03;;;;;;;;;;5071549;28;20250;-77
2020/12/15 01:15:48;;;;;;;5.40;4.40;;;;;;;;;;5068017;28;20195;-77
2020/12/15 01:18:15;;;;;;;4.80;4.15;;;;;;;;;;5062381;28;20256;-77
2020/12/15 01:20:42;;;;;;;5.25;4.50;;;;;;;;;;5048457;28;20192;-77
2020/12/15 01:23:09;;;;;;;5.05;3.90;;;;;;;;;;5047633;28;20222;-77
2020/12/15 01:25:36;;;;;;;5.30;4.80;;;;;;;;;;5048514;28;20199;-76
2020/12/15 01:28:02;;;;;;;6.40;4.80;;;;;;;;;;5056845;28;20625;-76
2020/12/15 01:30:30;;;;;;;5.20;4.57;;;;;;;;;;5068006;28;20553;-76
2020/12/15 01:32:56;;;;;;;6.93;4.90;;;;;;;;;;5065783;28;20598;-77
2020/12/15 01:35:24;;;;;;;7.15;4.65;;;;;;;;;;5067336;28;20193;-75
2020/12/15 01:37:51;;;;;;;5.10;4.20;;;;;;;;;;5068956;28;20228;-77
2020/12/15 01:40:18;;;;;;;6.97;4.25;;;;;;;;;;5069166;28;20292;-77
2020/12/15 01:42:45;;;;;;;4.40;4.00;;;;;;;;;;5069543;28;20200;-76
2020/12/15 01:45:11;;;;;;;5.22;4.60;;;;;;;;;;5071044;28;20201;-78
2020/12/15 01:47:38;;;;;;;6.20;4.80;;;;;;;;;;5071174;28;20198;-78
2020/12/15 01:50:05;;;;;;;7.50;5.03;;;;;;;;;;5071186;28;20194;-77
2020/12/15 01:52:33;;;;;;;5.90;5.10;;;;;;;;;;5068131;28;20184;-78
2020/12/15 01:55:01;;;;;;;6.85;4.90;;;;;;;;;;5065178;28;20235;-77
2020/12/15 01:57:27;;;;;;;7.03;5.05;;;;;;;;;;5068426;28;20780;-78
2020/12/15 01:59:54;;;;;;;7.03;4.95;;;;;;;;;;5067488;28;20550;-78
2020/12/15 02:02:22;;;;;;;7.22;4.75;;;;;;;;;;5068761;28;20281;-76
2020/12/15 02:04:49;;;;;;;8.23;5.20;;;;;;;;;;5067534;28;20220;-77
2020/12/15 02:07:16;;;;;;;7.35;5.07;;;;;;;;;;5068108;28;20623;-79
2020/12/15 02:09:44;;;;;;;6.93;4.60;;;;;;;;;;5065266;28;20204;-79
2020/12/15 02:12:11;;;;;;;6.30;4.65;;;;;;;;;;5071187;28;20192;-82
2020/12/15 02:14:38;;;;;;;6.35;4.45;;;;;;;;;;5072735;28;20220;-78
2020/12/15 02:17:05;;;;;;;7.32;5.18;;;;;;;;;;5072815;28;20230;-77
2020/12/15 02:19:32;;;;;;;5.95;4.82;;;;;;;;;;5073071;28;20218;-82
2020/12/15 02:22:00;;;;;;;5.45;4.60;;;;;;;;;;5074709;28;20730;-80
2020/12/15 02:24:28;;;;;;;8.82;4.50;;;;;;;;;;5074675;28;20263;-78
2020/12/15 02:26:55;;;;;;;7.10;4.70;;;;;;;;;;5074616;28;20726;-77
2020/12/15 02:29:22;;;;;;;5.22;4.60;;;;;;;;;;5053881;28;20193;-78
2020/12/15 02:31:49;;;;;;;7.38;5.05;;;;;;;;;;5068965;28;20201;-77
2020/12/15 02:34:16;;;;;;;6.18;4.05;;;;;;;;;;5071214;28;20212;-78
2020/12/15 02:36:43;;;;;;;5.20;4.43;;;;;;;;;;5071703;28;20704;-78
2020/12/15 02:39:11;;;;;;;6.45;4.88;;;;;;;;;;5072305;28;20207;-78
2020/12/15 02:41:38;;;;;;;6.53;5.15;;;;;;;;;;5072627;28;20647;-78
2020/12/15 02:44:06;;;;;;;5.72;4.72;;;;;;;;;;5074451;28;20634;-78
2020/12/15 02:46:33;;;;;;;6.28;4.85;;;;;;;;;;5074510;28;20200;-77
2020/12/15 02:49:00;;;;;;;8.18;5.43;;;;;;;;;;5074373;28;20198;-77
2020/12/15 02:51:26;;;;;;;7.38;5.20;;;;;;;;;;5071299;28;20294;-77
2020/12/15 02:53:54;;;;;;;5.65;4.70;;;;;;;;;;5068073;28;20229;-78
2020/12/15 02:56:22;;;;;;;6.05;5.00;;;;;;;;;;5053743;28;20674;-79
2020/12/15 02:58:49;;;;;;;7.90;5.32;;;;;;;;;;5072088;28;20290;-78
2020/12/15 03:01:16;;;;;;;7.63;4.93;;;;;;;;;;5071570;28;20597;-78
2020/12/15 03:03:42;;;;;;;7.18;5.03;;;;;;;;;;5072161;28;20216;-77
2020/12/15 03:06:09;;;;;;;5.75;4.93;;;;;;;;;;5069245;28;20222;-78
2020/12/15 03:08:36;;;;;;;8.45;5.68;;;;;;;;;;5068966;28;20283;-78
2020/12/15 03:11:04;;;;;;;6.10;4.88;;;;;;;;;;5071952;28;20284;-77
2020/12/15 03:13:31;;;;;;;5.65;5.00;;;;;;;;;;5071895;28;20895;-77
2020/12/15 03:15:58;;;;;;;9.70;6.05;;;;;;;;;;5071939;28;20301;-78
2020/12/15 03:18:25;;;;;;;7.60;5.30;;;;;;;;;;5069172;28;20228;-76
2020/12/15 03:20:52;;;;;;;5.70;4.63;;;;;;;;;;5058861;28;20213;-76
2020/12/15 03:23:20;;;;;;;8.10;6.00;;;;;;;;;;5064959;28;20713;-78
2020/12/15 03:25:52;;;;;;;6.20;5.15;;;;;;;;;;5069572;28;20192;-76
2020/12/15 03:28:19;;;;;;;6.38;5.57;;;;;;;;;;5069872;28;20263;-77
2020/12/15 03:30:47;;;;;;;7.03;5.65;;;;;;;;;;5071324;28;20650;-76
2020/12/15 03:33:14;;;;;;;9.82;5.70;;;;;;;;;;5071429;28;20245;-76
2020/12/15 03:35:40;;;;;;;8.88;5.38;;;;;;;;;;5070426;28;20194;-77
2020/12/15 03:38:07;;;;;;;7.00;5.50;;;;;;;;;;5066291;28;20691;-76
2020/12/15 03:40:34;;;;;;;7.25;5.43;;;;;;;;;;5069877;28;20282;-76
2020/12/15 03:43:01;;;;;;;7.47;5.20;;;;;;;;;;5053209;28;20213;-77
2020/12/15 03:45:29;;;;;;;12.55;5.80;;;;;;;;;;5071040;28;20215;-77
2020/12/15 03:47:57;;;;;;;9.48;5.78;;;;;;;;;;5071043;28;20192;-77
2020/12/15 03:50:24;;;;;;;8.75;5.90;;;;;;;;;;5072766;28;20198;-76
2020/12/15 03:52:50;;;;;;;5.65;4.97;;;;;;;;;;5075060;28;20217;-76
2020/12/15 03:55:21;;;;;;;9.63;6.07;;;;;;;;;;5093420;28;20721;-76
2020/12/15 03:57:48;;;;;;;6.30;5.18;;;;;;;;;;5090213;28;20226;-77
2020/12/15 04:00:15;;;;;;;9.00;6.30;;;;;;;;;;5087137;28;20217;-77
2020/12/15 04:02:42;;;;;;;9.45;6.38;;;;;;;;;;5090150;28;20277;-78
2020/12/15 04:05:10;;;;;;;6.82;5.40;;;;;;;;;;5088330;28;20193;-77
2020/12/15 04:07:37;;;;;;;7.78;5.63;;;;;;;;;;5090550;28;20220;-77
2020/12/15 04:10:04;;;;;;;7.38;5.63;;;;;;;;;;5090706;28;20236;-77
2020/12/15 04:12:31;;;;;;;7.47;5.80;;;;;;;;;;5089126;28;20195;-76
2020/12/15 04:14:58;;;;;;;8.90;5.43;;;;;;;;;;5087700;28;20194;-78
2020/12/15 04:17:24;;;;;;;10.05;6.30;;;;;;;;;;5090026;28;20262;-76
2020/12/15 04:19:51;;;;;;;7.18;5.65;;;;;;;;;;5090676;28;20201;-76
2020/12/15 04:22:19;;;;;;;9.52;6.03;;;;;;;;;;5090367;28;20675;-76
2020/12/15 04:24:46;;;;;;;9.95;6.80;;;;;;;;;;5091095;28;20235;-76
2020/12/15 04:27:12;;;;;;;6.95;5.80;;;;;;;;;;5092909;28;20203;-77
2020/12/15 04:29:39;;;;;;;6.97;5.57;;;;;;;;;;5092426;28;20736;-77
2020/12/15 04:32:06;;;;;;;7.22;6.35;;;;;;;;;;5092645;28;20664;-76
2020/12/15 04:34:33;;;;;;;8.68;5.90;;;;;;;;;;5088312;28;20211;-79
2020/12/15 04:37:00;;;;;;;7.25;6.18;;;;;;;;;;5086853;28;20237;-76
2020/12/15 04:39:27;;;;;;;8.70;6.43;;;;;;;;;;5089904;28;20215;-76
2020/12/15 04:41:54;;;;;;;7.25;5.68;;;;;;;;;;5090147;28;20212;-77
2020/12/15 04:44:21;;;;;;;8.65;6.43;;;;;;;;;;5089993;28;21172;-76
2020/12/15 04:46:52;;;;;;;8.50;6.72;;;;;;;;;;5090864;28;20195;-77
2020/12/15 04:49:21;;;;;;;10.40;6.50;;;;;;;;;;5092272;28;20545;-77
2020/12/15 04:51:57;;;;;;;11.65;6.15;;;;;;;;;;5092247;28;20666;-77
2020/12/15 04:54:28;;;;;;;10.77;6.57;;;;;;;;;;5091674;28;20318;-76
2020/12/15 04:56:59;;;;;;;8.68;6.22;;;;;;;;;;5087732;28;20193;-76
2020/12/15 04:59:29;;;;;;;6.97;5.78;;;;;;;;;;5087344;28;20206;-77
2020/12/15 05:01:56;;;;;;;8.43;6.50;;;;;;;;;;5089530;28;20204;-77
2020/12/15 05:07:09;;;;;;;7.07;6.18;;;;;;;;;;5073033;28;20186;-78
2020/12/15 05:09:37;;;;;;;7.93;6.30;;;;;;;;;;5087340;28;20630;-77
2020/12/15 05:12:05;;;;;;;9.27;6.65;;;;;;;;;;5086502;28;20194;-76
2020/12/15 05:14:31;;;;;;;11.05;7.38;;;;;;;;;;5088697;28;20706;-76
2020/12/15 05:16:58;;;;;;;11.57;7.47;;;;;;;;;;5089370;28;20612;-77
2020/12/15 05:19:25;;;;;;;9.55;6.53;;;;;;;;;;5086607;28;20542;-78
2020/12/15 05:21:53;;;;;;;8.32;6.57;;;;;;;;;;5088052;28;20195;-77
2020/12/15 05:24:24;;;;;;;8.50;6.25;;;;;;;;;;5089396;28;20634;-76
2020/12/15 05:26:51;;;;;;;8.85;6.72;;;;;;;;;;5089969;28;20205;-77
2020/12/15 05:29:20;;;;;;;13.35;7.07;;;;;;;;;;5089802;28;20558;-76
2020/12/15 05:31:47;;;;;;;7.65;6.47;;;;;;;;;;5089684;28;20852;-76
2020/12/15 05:34:20;;;;;;;8.18;6.65;;;;;;;;;;5084658;28;20212;-77
2020/12/15 05:36:52;;;;;;;7.35;6.07;;;;;;;;;;5087891;28;20191;-75
2020/12/15 05:39:18;;;;;;;9.90;6.68;;;;;;;;;;5071351;28;20234;-78
2020/12/15 05:41:48;;;;;;;12.45;6.60;;;;;;;;;;5089318;28;20190;-77
2020/12/15 05:44:24;;;;;;;10.45;6.93;;;;;;;;;;5089318;28;20571;-76
2020/12/15 05:46:52;;;;;;;10.00;7.00;;;;;;;;;;5073274;28;20216;-76
2020/12/15 05:49:26;;;;;;;11.38;7.20;;;;;;;;;;5091148;28;20221;-75
2020/12/15 05:51:53;;;;;;;9.63;7.20;;;;;;;;;;5091543;28;20201;-76
2020/12/15 05:54:20;;;;;;;13.35;8.38;;;;;;;;;;5088190;28;20308;-76
2020/12/15 05:56:47;;;;;;;10.55;7.05;;;;;;;;;;5085725;28;20214;-75
2020/12/15 05:59:19;;;;;;;9.35;7.10;;;;;;;;;;5088378;28;20204;-75
2020/12/15 06:01:47;;;;;;;11.68;7.65;;;;;;;;;;5071473;28;20235;-76
2020/12/15 06:04:14;;;;;;;9.73;7.43;;;;;;;;;;5069572;28;20219;-75
2020/12/15 06:06:41;;;;;;;11.57;8.30;;;;;;;;;;5089180;28;20868;-75
2020/12/15 06:09:09;;;;;;;10.57;7.07;;;;;;;;;;5073318;28;20585;-77
2020/12/15 06:11:38;;;;;;;9.05;7.53;;;;;;;;;;5091156;28;20206;-77
2020/12/15 06:14:05;;;;;;;13.05;7.60;;;;;;;;;;5090995;28;20215;-76
2020/12/15 06:16:31;;;;;;;10.10;7.75;;;;;;;;;;5088033;28;20189;-76
2020/12/15 06:18:58;;;;;;;10.95;7.75;;;;;;;;;;5085173;28;20229;-74
2020/12/15 06:21:26;;;;;;;15.55;9.38;;;;;;;;;;5088549;28;20213;-75
2020/12/15 06:24:01;;;;;;;15.73;8.37;;;;;;;;;;5088557;28;20760;-80
2020/12/15 06:26:28;;;;;;;10.75;8.93;;;;;;;;;;5088827;28;20438;-75
2020/12/15 06:29:03;;;;;;;9.77;7.63;;;;;;;;;;5068168;28;20527;-76
2020/12/15 06:31:30;;;;;;;12.13;8.97;;;;;;;;;;5075329;28;20613;-76
2020/12/15 06:33:57;;;;;;;10.93;8.63;;;;;;;;;;5084558;28;20556;-78
2020/12/15 06:36:26;;;;;;;13.52;9.60;;;;;;;;;;5087046;28;20976;-74
2020/12/15 06:38:53;;;;;;;13.18;8.73;;;;;;;;;;5088409;28;20266;-74
2020/12/15 06:41:20;;;;;;;11.77;9.60;;;;;;;;;;5089090;28;20282;-74
2020/12/15 06:43:47;;;;;;;10.60;8.82;;;;;;;;;;5088650;28;20672;-75
2020/12/15 06:46:14;;;;;;;14.10;10.10;;;;;;;;;;5091029;28;20208;-74
2020/12/15 06:48:44;;;;;;;14.10;10.68;;;;;;;;;;5090857;28;20490;-75
2020/12/15 06:51:11;;;;;;;15.87;9.77;;;;;;;;;;5090861;28;20203;-75
2020/12/15 06:53:39;;;;;;;14.87;9.00;;;;;;;;;;5088655;28;20522;-76
2020/12/15 06:56:09;;;;;;;12.27;9.47;;;;;;;;;;5085546;28;20446;-75
2020/12/15 06:58:36;;;;;;;13.85;9.95;;;;;;;;;;5089874;28;20568;-75
2020/12/15 07:01:03;;;;;;;16.13;10.17;;;;;;;;;;5092229;28;20210;-76
2020/12/15 07:03:34;;;;;;;17.10;9.47;;;;;;;;;;5090881;28;20466;-74
2020/12/15 07:06:07;;;;;;;10.53;8.80;;;;;;;;;;5089691;28;20449;-80
2020/12/15 07:08:34;;;;;;;15.50;10.87;;;;;;;;;;5086393;28;20999;-78
2020/12/15 07:11:02;;;;;;;14.80;9.50;;;;;;;;;;5084431;28;20486;-79
2020/12/15 07:13:29;;;;;;;11.73;9.40;;;;;;;;;;5088643;28;20461;-75
2020/12/15 07:15:56;;;;;;;15.13;9.50;;;;;;;;;;5090428;28;20506;-76
2020/12/15 07:18:22;;;;;;;12.77;9.25;;;;;;;;;;5089249;28;20476;-75
2020/12/15 07:20:50;;;;;;;12.98;9.45;;;;;;;;;;5080381;28;20250;-75
2020/12/15 07:23:17;;;;;;;12.57;9.20;;;;;;;;;;5083699;28;20225;-76
2020/12/15 07:25:44;;;;;;;13.43;9.73;;;;;;;;;;5085296;28;20443;-75
2020/12/15 07:28:12;;;;;;;14.27;9.70;;;;;;;;;;5091117;28;20448;-75
2020/12/15 07:30:39;;;;;;;12.00;10.10;;;;;;;;;;5072455;28;20466;-75
2020/12/15 07:33:06;;;;;;;14.13;10.40;;;;;;;;;;5091052;28;20469;-74
2020/12/15 07:35:34;;;;;;;16.15;10.93;;;;;;;;;;5071838;28;20457;-75
2020/12/15 07:38:03;;;;;;;12.00;9.53;;;;;;;;;;5088248;28;20234;-75
2020/12/15 07:40:32;;;;;;;11.03;9.87;;;;;;;;;;5072108;28;21068;-77
2020/12/15 07:42:59;;;;;;;13.20;10.13;;;;;;;;;;5091165;28;20454;-76
2020/12/15 07:45:28;;;;;;;15.17;11.10;;;;;;;;;;5090899;28;20545;-75
2020/12/15 07:47:56;;;;;;;18.57;11.00;;;;;;;;;;5069828;28;20462;-75
2020/12/15 07:50:26;;;;;;;14.23;10.47;;;;;;;;;;5067124;28;20442;-79
2020/12/15 07:52:53;;;;;;;14.20;10.03;;;;;;;;;;5092271;28;20469;-74
2020/12/15 07:55:21;;;;;;;15.67;10.80;;;;;;;;;;5071570;28;21007;-74
2020/12/15 07:57:48;;;;;;;17.13;11.82;;;;;;;;;;5078751;28;20602;-75
2020/12/15 08:00:15;;;;;;;13.90;9.98;;;;;;;;;;5086982;28;20192;-74
2020/12/15 08:02:43;;;;;;;15.57;11.10;;;;;;;;;;5089113;28;20192;-75
2020/12/15 08:05:12;;;;;;;17.43;11.23;;;;;;;;;;5090576;28;20881;-76
2020/12/15 08:07:39;;;;;;;15.07;10.45;;;;;;;;;;5091017;28;20444;-75
2020/12/15 08:10:07;;;;;;;15.83;12.03;;;;;;;;;;5069205;28;20209;-74
2020/12/15 08:12:34;;;;;;;18.50;12.20;;;;;;;;;;5078290;28;20440;-75
2020/12/15 08:15:02;;;;;;;19.20;11.73;;;;;;;;;;5087411;28;20322;-75
2020/12/15 08:17:31;;;;;;;15.50;11.90;;;;;;;;;;5089892;28;20486;-74
2020/12/15 08:20:02;;;;;;;17.93;12.03;;;;;;;;;;5072756;28;20449;-75
2020/12/15 08:22:29;;;;;;;18.43;12.30;;;;;;;;;;5090894;28;20446;-75
2020/12/15 08:24:57;;;;;;;18.50;13.00;;;;;;;;;;5090719;28;20455;-75
2020/12/15 08:27:25;;;;;;;21.87;12.73;;;;;;;;;;5092747;28;20537;-74
2020/12/15 08:29:52;;;;;;;18.67;11.73;;;;;;;;;;5074751;28;20441;-75
2020/12/15 08:32:28;;;;;;;17.20;11.80;;;;;;;;;;5092563;28;20446;-74
2020/12/15 08:35:05;;;;;;;17.97;12.70;;;;;;;;;;5071562;28;20493;-75
2020/12/15 08:37:33;;;;;;;19.17;13.10;;;;;;;;;;5086687;28;20595;-75
2020/12/15 08:40:03;;;;;;;21.57;12.90;;;;;;;;;;5069892;28;20447;-75
2020/12/15 08:42:30;;;;;;;16.10;12.30;;;;;;;;;;5069858;28;20443;-75
2020/12/15 08:44:58;;;;;;;18.33;14.00;;;;;;;;;;5069981;28;20449;-74
2020/12/15 08:47:25;;;;;;;18.60;11.50;;;;;;;;;;5077081;28;20204;-75
2020/12/15 08:49:55;;;;;;;18.97;12.07;;;;;;;;;;5092355;28;20481;-75
2020/12/15 08:52:23;;;;;;;18.47;12.33;;;;;;;;;;5092264;28;20442;-74
2020/12/15 08:54:50;;;;;;;21.20;13.37;;;;;;;;;;5073971;28;20486;-75
2020/12/15 08:57:18;;;;;;;18.27;11.70;;;;;;;;;;5068502;28;20444;-75
2020/12/15 08:59:45;;;;;;;18.77;14.10;;;;;;;;;;5065950;28;20447;-75
2020/12/15 09:02:13;;;;;;;23.43;13.40;;;;;;;;;;5068417;28;20439;-77
2020/12/15 09:04:40;;;;;;;18.90;13.17;;;;;;;;;;5068773;28;21018;-74
2020/12/15 09:07:17;;;;;;;17.20;12.67;;;;;;;;;;5069744;28;20450;-75
2020/12/15 09:09:45;;;;;;;17.73;13.07;;;;;;;;;;5063627;28;20969;-75
2020/12/15 09:12:12;;;;;;;17.53;12.20;;;;;;;;;;5063657;28;20447;-74
2020/12/15 09:14:39;;;;;;;17.20;13.27;;;;;;;;;;5067071;28;21007;-74
2020/12/15 09:17:06;;;;;;;18.00;13.30;;;;;;;;;;5069361;28;20209;-75
2020/12/15 09:19:41;;;;;;;17.83;12.73;;;;;;;;;;5069458;28;20530;-75
2020/12/15 09:22:09;;;;;;;16.48;12.45;;;;;;;;;;5065635;28;20455;-74
2020/12/15 09:24:42;;;;;;;17.23;13.60;;;;;;;;;;5068239;28;20777;-74
2020/12/15 09:27:19;;;;;;;21.40;15.40;;;;;;;;;;5063643;28;20416;-75
2020/12/15 09:29:46;;;;;;;18.93;13.90;;;;;;;;;;5065079;28;20936;-74
2020/12/15 09:32:14;;;;;;;18.83;12.33;;;;;;;;;;5068072;28;20540;-74
2020/12/15 09:34:41;;;;;;;16.63;12.57;;;;;;;;;;5067444;28;20466;-75
2020/12/15 09:37:09;;;;;;;17.80;13.37;;;;;;;;;;5051381;28;20551;-75
2020/12/15 09:39:36;;;;;;;17.80;12.90;;;;;;;;;;5067874;28;20921;-74
2020/12/15 09:42:05;;;;;;;19.00;13.70;;;;;;;;;;5065724;28;20432;-75
2020/12/15 09:44:33;;;;;;;21.83;13.77;;;;;;;;;;5067093;28;20880;-74
2020/12/15 09:47:00;;;;;;;17.63;12.87;;;;;;;;;;5068858;28;20861;-75
2020/12/15 09:49:28;;;;;;;21.17;12.70;;;;;;;;;;5068441;28;20452;-75
2020/12/15 09:51:55;;;;;;;16.07;12.10;;;;;;;;;;5068431;28;20454;-76
2020/12/15 09:54:23;;;;;;;18.90;13.00;;;;;;;;;;5066793;28;20483;-75
2020/12/15 09:56:50;;;;;;;17.40;12.63;;;;;;;;;;5066191;28;20427;-75
2020/12/15 09:59:17;;;;;;;15.20;12.40;;;;;;;;;;5067462;28;20544;-75
2020/12/15 10:01:46;;;;;;;23.30;12.60;;;;;;;;;;5067999;28;20435;-75
2020/12/15 10:04:13;;;;;;;19.33;12.37;;;;;;;;;;5050336;28;20473;-75
2020/12/15 10:06:43;;;;;;;15.90;11.67;;;;;;;;;;5068185;28;20463;-75
2020/12/15 10:09:10;;;;;;;18.23;13.70;;;;;;;;;;5065164;28;20439;-75
2020/12/15 10:11:38;;;;;;;17.93;12.80;;;;;;;;;;5065923;28;20443;-75
2020/12/15 10:14:05;;;;;;;14.90;11.40;;;;;;;;;;5068465;28;20494;-75
2020/12/15 10:16:33;;;;;;;16.03;10.47;;;;;;;;;;5068103;28;20509;-74
2020/12/15 10:19:01;;;;;;;14.70;11.60;;;;;;;;;;5069078;28;20478;-75
2020/12/15 10:21:28;;;;;;;16.70;12.57;;;;;;;;;;5069979;28;20463;-75
2020/12/15 10:23:56;;;;;;;14.50;11.00;;;;;;;;;;5070710;28;20546;-76
2020/12/15 10:26:25;;;;;;;17.60;12.30;;;;;;;;;;5070790;28;20439;-76
2020/12/15 10:28:53;;;;;;;18.10;12.00;;;;;;;;;;5070391;28;20455;-75
2020/12/15 10:31:21;;;;;;;15.73;11.80;;;;;;;;;;5065319;28;20472;-76
2020/12/15 10:33:49;;;;;;;21.00;12.90;;;;;;;;;;5067377;28;21028;-75
2020/12/15 10:36:18;;;;;;;18.37;13.40;;;;;;;;;;5072348;28;20443;-75
2020/12/15 10:38:46;;;;;;;17.30;12.00;;;;;;;;;;5071554;28;20522;-75
2020/12/15 10:41:14;;;;;;;17.40;13.47;;;;;;;;;;5072685;28;20443;-76
2020/12/15 10:43:41;;;;;;;18.10;12.80;;;;;;;;;;5073021;28;20571;-75
2020/12/15 10:46:09;;;;;;;15.83;13.07;;;;;;;;;;5074710;28;20518;-74
2020/12/15 10:48:37;;;;;;;18.47;12.83;;;;;;;;;;5073474;28;20438;-74
2020/12/15 10:51:05;;;;;;;18.30;11.03;;;;;;;;;;5073380;28;20452;-75
2020/12/15 10:53:35;;;;;;;17.60;13.00;;;;;;;;;;5069443;28;20479;-74
2020/12/15 10:56:03;;;;;;;17.37;12.07;;;;;;;;;;5068588;28;20801;-74
2020/12/15 10:58:30;;;;;;;17.70;12.50;;;;;;;;;;5071748;28;20479;-75
2020/12/15 11:00:57;;;;;;;13.67;11.30;;;;;;;;;;5071719;28;20444;-75
2020/12/15 11:03:25;;;;;;;16.80;11.83;;;;;;;;;;5072225;28;20463;-76
2020/12/15 11:05:53;;;;;;;15.37;12.20;;;;;;;;;;5072732;28;20517;-76
2020/12/15 11:08:20;;;;;;;14.20;10.83;;;;;;;;;;5073555;28;20439;-75
2020/12/15 11:10:49;;;;;;;13.93;10.10;;;;;;;;;;5073874;28;20920;-76
2020/12/15 11:13:17;;;;;;;16.13;11.20;;;;;;;;;;5056255;28;20472;-76
2020/12/15 11:15:47;;;;;;;15.50;11.83;;;;;;;;;;5069454;28;20920;-74
2020/12/15 11:18:14;;;;;;;14.40;11.63;;;;;;;;;;5068287;28;20962;-75
2020/12/15 11:20:41;;;;;;;18.03;12.20;;;;;;;;;;5071723;28;20441;-75
2020/12/15 11:23:08;;;;;;;15.37;11.67;;;;;;;;;;5057612;28;20467;-76
2020/12/15 11:25:35;;;;;;;16.70;11.50;;;;;;;;;;5066263;28;20443;-75
2020/12/15 11:28:02;;;;;;;12.30;10.70;;;;;;;;;;5070370;28;20564;-75
2020/12/15 11:30:29;;;;;;;14.90;10.30;;;;;;;;;;5071741;28;20456;-75
2020/12/15 11:32:56;;;;;;;15.47;12.23;;;;;;;;;;5073009;28;20466;-75
2020/12/15 11:35:23;;;;;;;14.13;10.57;;;;;;;;;;5072715;28;20486;-75
2020/12/15 11:37:50;;;;;;;14.97;10.10;;;;;;;;;;5067850;28;20515;-75
2020/12/15 11:40:17;;;;;;;16.73;11.03;;;;;;;;;;5064982;28;20527;-75
2020/12/15 11:42:44;;;;;;;14.03;10.60;;;;;;;;;;5067271;28;20456;-75
2020/12/15 11:45:14;;;;;;;15.23;10.40;;;;;;;;;;5067028;28;20440;-75
2020/12/15 11:47:41;;;;;;;17.20;11.40;;;;;;;;;;5068259;28;20451;-76
2020/12/15 11:50:08;;;;;;;16.13;10.83;;;;;;;;;;5067528;28;20447;-75
2020/12/15 11:52:36;;;;;;;16.60;11.30;;;;;;;;;;5064281;28;20495;-75
2020/12/15 11:55:03;;;;;;;13.60;10.77;;;;;;;;;;5064331;28;20978;-75
2020/12/15 11:57:30;;;;;;;13.93;11.13;;;;;;;;;;5068223;28;20527;-75
2020/12/15 11:59:57;;;;;;;15.20;10.00;;;;;;;;;;5067071;28;20851;-75
2020/12/15 12:02:25;;;;;;;14.50;10.50;;;;;;;;;;5067609;28;20456;-76
2020/12/15 12:04:52;;;;;;;14.00;11.23;;;;;;;;;;5065196;28;20578;-77
2020/12/15 12:07:19;;;;;;;18.50;11.00;;;;;;;;;;5063762;28;20441;-77
2020/12/15 12:09:46;;;;;;;20.50;10.47;;;;;;;;;;5066923;28;20452;-75
2020/12/15 12:12:13;;;;;;;14.53;10.80;;;;;;;;;;5067611;28;20436;-75
2020/12/15 12:14:40;;;;;;;14.27;10.90;;;;;;;;;;5068382;28;20468;-75
2020/12/15 12:17:07;;;;;;;16.13;12.30;;;;;;;;;;5069052;28;20448;-75
2020/12/15 12:19:35;;;;;;;14.27;10.73;;;;;;;;;;5070878;28;20545;-75
2020/12/15 12:22:01;;;;;;;15.37;11.53;;;;;;;;;;5070040;28;20468;-75
2020/12/15 12:24:28;;;;;;;17.60;10.83;;;;;;;;;;5070445;28;20551;-74
2020/12/15 12:26:57;;;;;;;19.63;10.77;;;;;;;;;;5068687;28;20432;-75
2020/12/15 12:29:24;;;;;;;13.37;10.77;;;;;;;;;;5065000;28;20438;-75
2020/12/15 12:31:51;;;;;;;12.50;10.60;;;;;;;;;;5066482;28;20441;-74
2020/12/15 12:34:18;;;;;;;12.73;10.40;;;;;;;;;;5069283;28;20460;-75
2020/12/15 12:36:46;;;;;;;14.07;9.87;;;;;;;;;;5069532;28;20982;-74
2020/12/15 12:39:13;;;;;;;15.67;10.67;;;;;;;;;;5071156;28;21147;-75
2020/12/15 12:41:40;;;;;;;17.30;11.13;;;;;;;;;;5070933;28;20448;-75
2020/12/15 12:44:07;;;;;;;14.93;11.47;;;;;;;;;;5068258;28;20468;-75
2020/12/15 12:46:34;;;;;;;18.13;11.70;;;;;;;;;;5069711;28;21020;-75
2020/12/15 12:49:01;;;;;;;15.30;11.70;;;;;;;;;;5069098;28;20501;-75
2020/12/15 12:51:28;;;;;;;14.57;11.50;;;;;;;;;;5069938;28;20929;-75
2020/12/15 12:53:57;;;;;;;12.83;10.53;;;;;;;;;;5078660;28;20578;-74
2020/12/15 12:56:23;;;;;;;14.83;11.10;;;;;;;;;;5091073;28;20529;-75
2020/12/15 12:58:50;;;;;;;14.00;10.30;;;;;;;;;;5092471;28;20998;-75
2020/12/15 13:01:22;;;;;;;16.67;11.47;;;;;;;;;;5088746;28;20451;-75
2020/12/15 13:03:49;;;;;;;13.60;10.53;;;;;;;;;;5086414;28;20778;-75
2020/12/15 13:06:16;;;;;;;14.07;9.77;;;;;;;;;;5095229;28;20450;-75
2020/12/15 13:08:43;;;;;;;15.37;11.23;;;;;;;;;;5090457;28;20510;-75
2020/12/15 13:11:11;;;;;;;16.00;10.40;;;;;;;;;;5072355;28;20439;-75
2020/12/15 13:13:38;;;;;;;12.90;10.60;;;;;;;;;;5090637;28;20486;-79
2020/12/15 13:16:05;;;;;;;12.80;11.37;;;;;;;;;;5092485;28;20517;-75
2020/12/15 13:18:32;;;;;;;15.00;10.70;;;;;;;;;;5090530;28;20841;-75
2020/12/15 13:20:59;;;;;;;15.30;11.33;;;;;;;;;;5081215;28;20444;-75
2020/12/15 13:23:26;;;;;;;15.20;10.90;;;;;;;;;;5061561;28;20463;-76
2020/12/15 13:25:53;;;;;;;16.20;10.83;;;;;;;;;;5086183;28;20431;-76
2020/12/15 13:28:20;;;;;;;14.87;10.73;;;;;;;;;;5089110;28;20538;-75
2020/12/15 13:30:47;;;;;;;17.00;10.00;;;;;;;;;;5089794;28;20455;-75
2020/12/15 13:33:14;;;;;;;20.47;11.43;;;;;;;;;;5089692;28;20463;-75
2020/12/15 13:35:41;;;;;;;16.27;10.80;;;;;;;;;;5088664;28;20514;-75
2020/12/15 13:38:08;;;;;;;18.53;11.93;;;;;;;;;;5090040;28;20593;-76
2020/12/15 13:40:35;;;;;;;13.00;10.10;;;;;;;;;;5089103;28;20995;-76
2020/12/15 13:43:02;;;;;;;18.00;11.67;;;;;;;;;;5090435;28;20499;-75
2020/12/15 13:45:29;;;;;;;14.43;11.33;;;;;;;;;;5089145;28;20514;-75
2020/12/15 13:47:58;;;;;;;14.10;11.77;;;;;;;;;;5084526;28;20451;-75
2020/12/15 13:50:25;;;;;;;12.40;9.93;;;;;;;;;;5088601;28;20466;-75
2020/12/15 13:52:52;;;;;;;16.07;11.07;;;;;;;;;;5089861;28;20450;-75
2020/12/15 13:55:19;;;;;;;16.47;9.90;;;;;;;;;;5069380;28;20447;-75
2020/12/15 13:57:47;;;;;;;15.20;10.13;;;;;;;;;;5070028;28;20445;-75
2020/12/15 14:00:14;;;;;;;15.40;9.73;;;;;;;;;;5071191;28;20493;-75
2020/12/15 14:02:42;;;;;;;14.40;10.60;;;;;;;;;;5066283;28;20468;-75
2020/12/15 14:05:09;;;;;;;16.20;11.87;;;;;;;;;;5066263;28;20535;-75
2020/12/15 14:07:36;;;;;;;16.57;11.20;;;;;;;;;;5071456;28;20442;-75
2020/12/15 14:10:04;;;;;;;17.07;11.60;;;;;;;;;;5074310;28;20455;-75
2020/12/15 14:12:31;;;;;;;17.30;12.50;;;;;;;;;;5072002;28;20449;-75
2020/12/15 14:14:58;;;;;;;21.23;12.40;;;;;;;;;;5073768;28;20501;-75
2020/12/15 14:17:25;;;;;;;18.60;11.20;;;;;;;;;;5075188;28;20470;-75
2020/12/15 14:19:53;;;;;;;18.73;11.73;;;;;;;;;;5075006;28;21048;-75
2020/12/15 14:22:20;;;;;;;17.67;10.70;;;;;;;;;;5075162;28;20526;-75
2020/12/15 14:24:47;;;;;;;17.30;10.97;;;;;;;;;;5070638;28;20468;-75
2020/12/15 14:27:14;;;;;;;14.10;10.73;;;;;;;;;;5069887;28;20440;-75
2020/12/15 14:29:41;;;;;;;18.87;11.57;;;;;;;;;;5072031;28;20534;-75
2020/12/15 14:32:08;;;;;;;18.97;11.77;;;;;;;;;;5072681;28;20435;-76
2020/12/15 14:34:35;;;;;;;19.50;12.47;;;;;;;;;;5072745;28;20546;-75